Datum - Zeit
Döttingen
TemperaturTaupunktFeuchteSolar Wind aus
Richtung
Windböenaus
Richtung
Luftdruck
(QFF)
RegenRegen
Stärke
02.06.2020 - 00.00Uhr14.4 °C9.4 °C72 %0.0 W/m²2.4 km/hNordosten5.8 km/hNordosten1016.9 hPa0.0 mm0.0 mm/h
02.06.2020 - 00.05Uhr14.2 °C9.4 °C73 %0.0 W/m²1.4 km/hNordosten4.0 km/hNordosten1016.9 hPa0.0 mm0.0 mm/h
02.06.2020 - 00.10Uhr14.4 °C9.3 °C71 %0.0 W/m²0.8 km/hNordosten4.0 km/hNordosten1016.9 hPa0.0 mm0.0 mm/h
02.06.2020 - 00.15Uhr14.6 °C9.6 °C72 %0.0 W/m²0.0 km/hNordosten0.0 km/hNorden1016.8 hPa0.0 mm0.0 mm/h
02.06.2020 - 00.20Uhr14.6 °C9.6 °C72 %0.0 W/m²0.0 km/hNordosten0.0 km/hNorden1016.8 hPa0.0 mm0.0 mm/h
02.06.2020 - 00.25Uhr14.4 °C9.3 °C71 %0.0 W/m²0.0 km/hNordosten0.0 km/hNorden1016.7 hPa0.0 mm0.0 mm/h
02.06.2020 - 00.30Uhr14.2 °C9.2 °C72 %0.0 W/m²1.0 km/hNordosten4.0 km/hNordosten1016.8 hPa0.0 mm0.0 mm/h
02.06.2020 - 00.35Uhr14.1 °C9.1 °C72 %0.0 W/m²0.0 km/hNordosten0.0 km/hNorden1016.7 hPa0.0 mm0.0 mm/h
02.06.2020 - 00.40Uhr14.0 °C9.2 °C73 %0.0 W/m²0.0 km/hNordosten0.0 km/hNorden1016.7 hPa0.0 mm0.0 mm/h
02.06.2020 - 00.45Uhr13.8 °C9.1 °C74 %0.0 W/m²0.0 km/hNordosten0.0 km/hNorden1016.6 hPa0.0 mm0.0 mm/h
02.06.2020 - 00.50Uhr13.8 °C9.1 °C73 %0.0 W/m²0.0 km/hNordosten0.0 km/hNorden1016.6 hPa0.0 mm0.0 mm/h
02.06.2020 - 00.55Uhr13.9 °C9.1 °C73 %0.0 W/m²0.0 km/hNordosten0.0 km/hNorden1016.6 hPa0.0 mm0.0 mm/h
02.06.2020 - 01.00Uhr13.9 °C9.0 °C73 %0.0 W/m²0.0 km/hNordosten0.0 km/hNorden1016.6 hPa0.0 mm0.0 mm/h
02.06.2020 - 01.05Uhr13.7 °C9.1 °C74 %0.0 W/m²0.0 km/hNordosten0.0 km/hNorden1016.6 hPa0.0 mm0.0 mm/h
02.06.2020 - 01.10Uhr13.4 °C9.0 °C75 %0.0 W/m²0.0 km/hNordosten0.0 km/hNorden1016.6 hPa0.0 mm0.0 mm/h
02.06.2020 - 01.15Uhr13.3 °C9.0 °C75 %0.0 W/m²0.0 km/hNordosten0.0 km/hNorden1016.6 hPa0.0 mm0.0 mm/h
02.06.2020 - 01.20Uhr13.4 °C9.1 °C75 %0.0 W/m²0.0 km/hNordosten0.0 km/hNorden1016.6 hPa0.0 mm0.0 mm/h
02.06.2020 - 01.25Uhr13.4 °C9.0 °C74 %0.0 W/m²2.2 km/hNordosten5.8 km/hNordosten1016.5 hPa0.0 mm0.0 mm/h
02.06.2020 - 01.30Uhr13.5 °C9.0 °C74 %0.0 W/m²3.0 km/hNordosten5.8 km/hNordosten1016.5 hPa0.0 mm0.0 mm/h
02.06.2020 - 01.35Uhr13.6 °C9.0 °C73 %0.0 W/m²2.0 km/hNordosten4.0 km/hNordosten1016.5 hPa0.0 mm0.0 mm/h
02.06.2020 - 01.40Uhr13.6 °C9.0 °C74 %0.0 W/m²2.3 km/hNordosten4.0 km/hNordosten1016.4 hPa0.0 mm0.0 mm/h
02.06.2020 - 01.45Uhr13.5 °C9.2 °C75 %0.0 W/m²4.1 km/hNordosten8.3 km/hNordosten1016.4 hPa0.0 mm0.0 mm/h
02.06.2020 - 01.50Uhr12.8 °C8.6 °C75 %0.0 W/m²6.0 km/hNordosten8.3 km/hNordosten1016.4 hPa0.0 mm0.0 mm/h
02.06.2020 - 01.55Uhr12.5 °C8.6 °C77 %0.0 W/m²3.5 km/hNordosten5.8 km/hNordosten1016.4 hPa0.0 mm0.0 mm/h
02.06.2020 - 02.00Uhr12.3 °C8.6 °C78 %0.0 W/m²5.4 km/hNordosten8.3 km/hNordosten1016.3 hPa0.0 mm0.0 mm/h
02.06.2020 - 02.05Uhr12.4 °C8.7 °C78 %0.0 W/m²5.5 km/hOst-NO8.3 km/hOst-NO1016.3 hPa0.0 mm0.0 mm/h
02.06.2020 - 02.10Uhr12.5 °C8.6 °C77 %0.0 W/m²5.4 km/hOst-NO8.3 km/hOst-NO1016.3 hPa0.0 mm0.0 mm/h
02.06.2020 - 02.15Uhr12.8 °C8.7 °C76 %0.0 W/m²4.4 km/hOst-NO8.3 km/hOst-NO1016.2 hPa0.0 mm0.0 mm/h
02.06.2020 - 02.20Uhr12.7 °C8.5 °C75 %0.0 W/m²2.8 km/hOst-NO4.0 km/hOst-NO1016.2 hPa0.0 mm0.0 mm/h
02.06.2020 - 02.25Uhr12.2 °C8.5 °C78 %0.0 W/m²2.0 km/hOst-NO4.0 km/hOst-NO1016.2 hPa0.0 mm0.0 mm/h
02.06.2020 - 02.30Uhr12.1 °C8.4 °C78 %0.0 W/m²0.0 km/hOst-NO0.0 km/hNorden1016.2 hPa0.0 mm0.0 mm/h
02.06.2020 - 02.35Uhr11.9 °C8.4 °C79 %0.0 W/m²0.0 km/hOst-NO0.0 km/hNorden1016.2 hPa0.0 mm0.0 mm/h
02.06.2020 - 02.40Uhr11.8 °C8.3 °C79 %0.0 W/m²0.0 km/hOst-NO0.0 km/hNorden1016.2 hPa0.0 mm0.0 mm/h
02.06.2020 - 02.45Uhr11.5 °C8.2 °C80 %0.0 W/m²2.2 km/hOst-NO5.8 km/hOst-NO1016.2 hPa0.0 mm0.0 mm/h
02.06.2020 - 02.50Uhr11.3 °C8.1 °C80 %0.0 W/m²2.4 km/hOst-NO5.8 km/hOst-NO1016.2 hPa0.0 mm0.0 mm/h
02.06.2020 - 02.55Uhr11.6 °C8.2 °C80 %0.0 W/m²4.6 km/hOst-NO8.3 km/hOst-NO1016.3 hPa0.0 mm0.0 mm/h
02.06.2020 - 03.00Uhr11.9 °C8.3 °C79 %0.0 W/m²4.3 km/hOst-NO5.8 km/hOst-NO1016.2 hPa0.0 mm0.0 mm/h
02.06.2020 - 03.05Uhr11.8 °C8.1 °C78 %0.0 W/m²3.4 km/hOst-NO5.8 km/hOst-NO1016.1 hPa0.0 mm0.0 mm/h
02.06.2020 - 03.10Uhr11.9 °C8.2 °C78 %0.0 W/m²3.4 km/hOst-NO5.8 km/hOst-NO1016.0 hPa0.0 mm0.0 mm/h
02.06.2020 - 03.15Uhr11.8 °C8.2 °C78 %0.0 W/m²4.0 km/hOst-NO8.3 km/hOst-NO1016.0 hPa0.0 mm0.0 mm/h
02.06.2020 - 03.20Uhr11.8 °C8.2 °C78 %0.0 W/m²4.7 km/hOst-NO8.3 km/hOst-NO1016.0 hPa0.0 mm0.0 mm/h
02.06.2020 - 03.25Uhr11.4 °C8.1 °C80 %0.0 W/m²2.9 km/hOst-NO5.8 km/hOst-NO1016.0 hPa0.0 mm0.0 mm/h
02.06.2020 - 03.30Uhr11.5 °C8.2 °C80 %0.0 W/m²3.5 km/hOst-NO8.3 km/hOst-NO1016.0 hPa0.0 mm0.0 mm/h
02.06.2020 - 03.35Uhr11.4 °C8.1 °C80 %0.0 W/m²1.6 km/hOst-NO4.0 km/hOst-NO1016.0 hPa0.0 mm0.0 mm/h
02.06.2020 - 03.40Uhr10.7 °C7.6 °C81 %0.0 W/m²4.1 km/hOst-NO5.8 km/hOst-NO1015.8 hPa0.0 mm0.0 mm/h
02.06.2020 - 03.45Uhr10.4 °C7.6 °C83 %0.0 W/m²3.8 km/hOst-NO5.8 km/hOst-NO1015.9 hPa0.0 mm0.0 mm/h
02.06.2020 - 03.50Uhr10.4 °C7.6 °C83 %0.0 W/m²2.2 km/hOst-NO5.8 km/hOst-NO1015.8 hPa0.0 mm0.0 mm/h
02.06.2020 - 03.55Uhr10.8 °C7.9 °C82 %0.0 W/m²0.4 km/hOst-NO1.8 km/hOst-NO1015.8 hPa0.0 mm0.0 mm/h
02.06.2020 - 04.00Uhr10.8 °C7.9 °C82 %0.0 W/m²1.3 km/hOst-NO5.8 km/hOst-NO1015.9 hPa0.0 mm0.0 mm/h
02.06.2020 - 04.05Uhr10.7 °C7.8 °C82 %0.0 W/m²2.4 km/hOst-NO5.8 km/hOst-NO1015.9 hPa0.0 mm0.0 mm/h
02.06.2020 - 04.10Uhr10.7 °C7.8 °C82 %0.0 W/m²3.0 km/hOst-NO5.8 km/hOst-NO1015.9 hPa0.0 mm0.0 mm/h
02.06.2020 - 04.15Uhr10.8 °C7.8 °C82 %0.0 W/m²2.6 km/hOst-NO5.8 km/hOst-NO1015.9 hPa0.0 mm0.0 mm/h
02.06.2020 - 04.20Uhr10.9 °C7.9 °C82 %0.0 W/m²3.0 km/hOst-NO5.8 km/hOst-NO1015.9 hPa0.0 mm0.0 mm/h
02.06.2020 - 04.25Uhr10.6 °C7.6 °C82 %0.0 W/m²1.3 km/hOst-NO4.0 km/hOst-NO1015.9 hPa0.0 mm0.0 mm/h
02.06.2020 - 04.30Uhr10.2 °C7.5 °C83 %0.0 W/m²2.0 km/hOst-NO4.0 km/hOst-NO1016.0 hPa0.0 mm0.0 mm/h
02.06.2020 - 04.35Uhr10.3 °C7.7 °C84 %0.0 W/m²0.0 km/hOst-NO0.0 km/hNorden1016.0 hPa0.0 mm0.0 mm/h
02.06.2020 - 04.40Uhr10.5 °C7.7 °C83 %0.0 W/m²0.5 km/hOst-NO1.8 km/hOst-NO1016.0 hPa0.0 mm0.0 mm/h
02.06.2020 - 04.45Uhr10.6 °C7.7 °C82 %0.0 W/m²0.0 km/hOst-NO0.0 km/hNorden1016.0 hPa0.0 mm0.0 mm/h
02.06.2020 - 04.50Uhr10.1 °C7.3 °C83 %0.0 W/m²0.0 km/hOst-NO0.0 km/hNorden1016.1 hPa0.0 mm0.0 mm/h
02.06.2020 - 04.55Uhr9.7 °C7.2 °C85 %0.0 W/m²2.0 km/hOst-NO4.0 km/hOst-NO1016.1 hPa0.0 mm0.0 mm/h
02.06.2020 - 05.00Uhr9.8 °C7.4 °C85 %0.0 W/m²2.0 km/hOst-NO5.8 km/hOst-NO1016.1 hPa0.0 mm0.0 mm/h
02.06.2020 - 05.05Uhr9.9 °C7.4 °C85 %0.0 W/m²4.8 km/hOst-NO8.3 km/hOst-NO1016.1 hPa0.0 mm0.0 mm/h
02.06.2020 - 05.10Uhr10.0 °C7.4 °C84 %0.0 W/m²3.1 km/hOst-NO5.8 km/hOst-NO1016.1 hPa0.0 mm0.0 mm/h
02.06.2020 - 05.15Uhr9.8 °C7.2 °C84 %0.0 W/m²3.2 km/hOst-NO5.8 km/hOst-NO1016.1 hPa0.0 mm0.0 mm/h
02.06.2020 - 05.20Uhr9.8 °C7.3 °C85 %0.0 W/m²4.0 km/hOst-NO8.3 km/hOst-NO1016.2 hPa0.0 mm0.0 mm/h
02.06.2020 - 05.25Uhr9.8 °C7.2 °C84 %0.0 W/m²4.4 km/hOst-NO5.8 km/hOst-NO1016.3 hPa0.0 mm0.0 mm/h
02.06.2020 - 05.30Uhr9.9 °C7.4 °C85 %5.0 W/m²4.3 km/hOst-NO8.3 km/hOst-NO1016.3 hPa0.0 mm0.0 mm/h
02.06.2020 - 05.35Uhr10.2 °C7.6 °C84 %7.0 W/m²3.0 km/hOst-NO5.8 km/hOst-NO1016.3 hPa0.0 mm0.0 mm/h
02.06.2020 - 05.40Uhr10.1 °C7.5 °C84 %9.0 W/m²1.9 km/hOst-NO4.0 km/hOst-NO1016.4 hPa0.0 mm0.0 mm/h
02.06.2020 - 05.45Uhr9.9 °C7.5 °C85 %11.0 W/m²2.7 km/hOst-NO4.0 km/hOst-NO1016.4 hPa0.0 mm0.0 mm/h
02.06.2020 - 05.50Uhr9.7 °C7.2 °C84 %11.0 W/m²2.2 km/hOst-NO4.0 km/hOst-NO1016.5 hPa0.0 mm0.0 mm/h
02.06.2020 - 05.55Uhr9.6 °C7.2 °C85 %12.0 W/m²0.0 km/hOst-NO0.0 km/hNorden1016.5 hPa0.0 mm0.0 mm/h
02.06.2020 - 06.00Uhr9.7 °C7.2 °C85 %12.0 W/m²0.9 km/hOst-NO4.0 km/hOst-NO1016.5 hPa0.0 mm0.0 mm/h
02.06.2020 - 06.05Uhr9.5 °C7.1 °C85 %14.0 W/m²0.0 km/hOst-NO0.0 km/hNorden1016.6 hPa0.0 mm0.0 mm/h
02.06.2020 - 06.10Uhr9.5 °C7.2 °C86 %16.0 W/m²0.5 km/hOst-NO1.8 km/hOst-NO1016.7 hPa0.0 mm0.0 mm/h
02.06.2020 - 06.15Uhr9.3 °C7.1 °C86 %16.0 W/m²2.2 km/hOst-NO4.0 km/hOst-NO1016.7 hPa0.0 mm0.0 mm/h
02.06.2020 - 06.20Uhr9.3 °C7.1 °C86 %18.0 W/m²1.3 km/hOst-NO4.0 km/hOst-NO1016.8 hPa0.0 mm0.0 mm/h
02.06.2020 - 06.25Uhr9.4 °C7.2 °C86 %19.0 W/m²0.5 km/hOst-NO1.8 km/hOst-NO1016.8 hPa0.0 mm0.0 mm/h
02.06.2020 - 06.30Uhr9.4 °C7.2 °C86 %21.0 W/m²2.7 km/hOst-NO5.8 km/hOst-NO1016.8 hPa0.0 mm0.0 mm/h
02.06.2020 - 06.35Uhr9.6 °C7.3 °C85 %21.0 W/m²3.6 km/hOst-NO5.8 km/hOst-NO1016.9 hPa0.0 mm0.0 mm/h
02.06.2020 - 06.40Uhr9.6 °C7.2 °C85 %23.0 W/m²4.1 km/hOst-NO5.8 km/hOst-NO1016.8 hPa0.0 mm0.0 mm/h
02.06.2020 - 06.45Uhr9.9 °C7.5 °C85 %25.0 W/m²1.2 km/hOst-NO4.0 km/hOst-NO1016.7 hPa0.0 mm0.0 mm/h
02.06.2020 - 06.50Uhr10.1 °C7.8 °C85 %46.0 W/m²0.0 km/hOst-NO0.0 km/hNorden1016.7 hPa0.0 mm0.0 mm/h
02.06.2020 - 06.55Uhr10.3 °C7.9 °C85 %130.0 W/m²0.0 km/hOst-NO0.0 km/hNorden1016.8 hPa0.0 mm0.0 mm/h
02.06.2020 - 07.00Uhr10.3 °C8.1 °C86 %141.0 W/m²0.0 km/hOst-NO0.0 km/hNorden1016.9 hPa0.0 mm0.0 mm/h
02.06.2020 - 07.05Uhr10.7 °C8.3 °C85 %148.0 W/m²0.0 km/hOst-NO0.0 km/hNorden1016.9 hPa0.0 mm0.0 mm/h
02.06.2020 - 07.10Uhr11.0 °C8.6 °C85 %160.0 W/m²0.0 km/hOst-NO0.0 km/hNorden1016.9 hPa0.0 mm0.0 mm/h
02.06.2020 - 07.15Uhr11.4 °C8.7 °C84 %172.0 W/m²0.7 km/hOst-NO1.8 km/hOst-NO1017.0 hPa0.0 mm0.0 mm/h
02.06.2020 - 07.20Uhr11.7 °C8.9 °C83 %188.0 W/m²2.3 km/hOst-NO4.0 km/hOst-NO1016.9 hPa0.0 mm0.0 mm/h
02.06.2020 - 07.25Uhr12.0 °C9.2 °C83 %199.0 W/m²1.8 km/hOst-NO4.0 km/hOst-NO1016.8 hPa0.0 mm0.0 mm/h
02.06.2020 - 07.30Uhr12.4 °C9.5 °C83 %214.0 W/m²0.5 km/hOst-NO1.8 km/hOst-NO1016.8 hPa0.0 mm0.0 mm/h
02.06.2020 - 07.35Uhr12.9 °C9.7 °C81 %227.0 W/m²0.0 km/hOst-NO0.0 km/hNorden1016.8 hPa0.0 mm0.0 mm/h
02.06.2020 - 07.40Uhr13.8 °C10.5 °C80 %241.0 W/m²0.2 km/hOst-NO1.8 km/hOst-NO1016.8 hPa0.0 mm0.0 mm/h
02.06.2020 - 07.45Uhr14.4 °C10.4 °C77 %253.0 W/m²0.0 km/hOst-NO0.0 km/hNorden1016.8 hPa0.0 mm0.0 mm/h
02.06.2020 - 07.50Uhr14.1 °C10.1 °C77 %267.0 W/m²0.3 km/hOst-NO1.8 km/hOst-NO1016.7 hPa0.0 mm0.0 mm/h
02.06.2020 - 07.55Uhr14.7 °C10.8 °C77 %279.0 W/m²0.0 km/hOst-NO0.0 km/hNorden1016.8 hPa0.0 mm0.0 mm/h
02.06.2020 - 08.00Uhr14.7 °C10.4 °C75 %295.0 W/m²0.2 km/hOst-NO1.8 km/hOst-NO1016.8 hPa0.0 mm0.0 mm/h
02.06.2020 - 08.05Uhr14.9 °C10.7 °C76 %306.0 W/m²0.0 km/hOst-NO0.0 km/hNorden1016.8 hPa0.0 mm0.0 mm/h
02.06.2020 - 08.10Uhr15.2 °C11.0 °C76 %322.0 W/m²0.0 km/hOst-NO0.0 km/hNorden1016.8 hPa0.0 mm0.0 mm/h
02.06.2020 - 08.15Uhr15.7 °C11.3 °C76 %334.0 W/m²1.4 km/hOst-NO4.0 km/hOst-NO1016.8 hPa0.0 mm0.0 mm/h
02.06.2020 - 08.20Uhr16.0 °C11.6 °C75 %348.0 W/m²0.8 km/hOst-NO4.0 km/hOst-NO1016.8 hPa0.0 mm0.0 mm/h
02.06.2020 - 08.25Uhr15.7 °C11.1 °C74 %360.0 W/m²0.2 km/hOst-NO1.8 km/hOst-NO1016.8 hPa0.0 mm0.0 mm/h
02.06.2020 - 08.30Uhr15.8 °C11.3 °C75 %376.0 W/m²0.6 km/hOst-NO1.8 km/hOst-NO1016.8 hPa0.0 mm0.0 mm/h
02.06.2020 - 08.35Uhr15.8 °C11.3 °C75 %387.0 W/m²0.0 km/hOst-NO0.0 km/hNorden1016.8 hPa0.0 mm0.0 mm/h
02.06.2020 - 08.40Uhr15.9 °C11.4 °C74 %403.0 W/m²0.2 km/hOst-NO1.8 km/hOst-NO1016.8 hPa0.0 mm0.0 mm/h
02.06.2020 - 08.45Uhr16.0 °C11.3 °C74 %413.0 W/m²0.7 km/hOst-NO1.8 km/hOst-NO1016.8 hPa0.0 mm0.0 mm/h
02.06.2020 - 08.50Uhr16.6 °C12.1 °C75 %429.0 W/m²0.4 km/hOst-NO1.8 km/hOst-NO1016.8 hPa0.0 mm0.0 mm/h
02.06.2020 - 08.55Uhr16.8 °C11.4 °C70 %443.0 W/m²1.3 km/hOst-NO4.0 km/hOst-NO1016.8 hPa0.0 mm0.0 mm/h
02.06.2020 - 09.00Uhr16.9 °C11.6 °C71 %455.0 W/m²0.6 km/hOst-NO1.8 km/hOst-NO1016.7 hPa0.0 mm0.0 mm/h
02.06.2020 - 09.05Uhr17.3 °C11.8 °C70 %469.0 W/m²0.9 km/hOst-NO4.0 km/hOst-NO1016.7 hPa0.0 mm0.0 mm/h
02.06.2020 - 09.10Uhr17.3 °C11.8 °C70 %483.0 W/m²0.8 km/hOst-NO1.8 km/hOst-NO1016.6 hPa0.0 mm0.0 mm/h
02.06.2020 - 09.15Uhr17.5 °C12.1 °C70 %494.0 W/m²1.3 km/hOst-NO5.8 km/hOst-NO1016.6 hPa0.0 mm0.0 mm/h
02.06.2020 - 09.20Uhr17.6 °C11.5 °C68 %508.0 W/m²1.7 km/hOst-NO4.0 km/hOst-NO1016.5 hPa0.0 mm0.0 mm/h
02.06.2020 - 09.25Uhr17.7 °C11.4 °C67 %522.0 W/m²2.1 km/hOst-NO4.0 km/hOst-NO1016.5 hPa0.0 mm0.0 mm/h
02.06.2020 - 09.30Uhr18.4 °C11.9 °C66 %534.0 W/m²1.7 km/hOst-NO4.0 km/hOst-NO1016.5 hPa0.0 mm0.0 mm/h
02.06.2020 - 09.35Uhr19.3 °C12.0 °C63 %547.0 W/m²2.2 km/hOst-NO5.8 km/hOst-NO1016.5 hPa0.0 mm0.0 mm/h
02.06.2020 - 09.40Uhr19.6 °C12.2 °C62 %557.0 W/m²4.1 km/hOst-NO12.2 km/hSüdosten1016.4 hPa0.0 mm0.0 mm/h
02.06.2020 - 09.45Uhr19.9 °C11.4 °C58 %575.0 W/m²7.7 km/hOst-SO10.1 km/hOst-SO1016.4 hPa0.0 mm0.0 mm/h
02.06.2020 - 09.50Uhr19.6 °C10.8 °C57 %584.0 W/m²8.7 km/hOst-SO12.2 km/hOst-SO1016.4 hPa0.0 mm0.0 mm/h
02.06.2020 - 09.55Uhr19.6 °C11.5 °C60 %592.0 W/m²7.0 km/hOst-SO12.2 km/hOst-SO1016.4 hPa0.0 mm0.0 mm/h
02.06.2020 - 10.00Uhr20.2 °C11.8 °C59 %608.0 W/m²6.5 km/hSüdosten12.2 km/hSüdosten1016.3 hPa0.0 mm0.0 mm/h
02.06.2020 - 10.05Uhr20.4 °C11.6 °C57 %621.0 W/m²6.9 km/hSüdosten10.1 km/hOst-SO1016.3 hPa0.0 mm0.0 mm/h
02.06.2020 - 10.10Uhr20.5 °C11.7 °C57 %633.0 W/m²3.2 km/hSüdosten8.3 km/hSüdosten1016.2 hPa0.0 mm0.0 mm/h
02.06.2020 - 10.15Uhr20.8 °C11.5 °C56 %643.0 W/m²8.1 km/hSüdosten16.2 km/hOst-SO1016.2 hPa0.0 mm0.0 mm/h